createdAt,value
2022-08-16T00:01:52.364Z,3.92
2022-08-16T00:04:19.848Z,3.55
2022-08-16T00:06:48.811Z,3.83
2022-08-16T00:09:16.802Z,4.20
2022-08-16T00:11:45.696Z,3.97
2022-08-16T00:14:15.447Z,3.70
2022-08-16T00:17:06.038Z,4.00
2022-08-16T00:19:41.661Z,3.90
2022-08-16T00:22:13.604Z,3.60
2022-08-16T00:24:44.698Z,3.65
2022-08-16T00:27:14.031Z,3.58
2022-08-16T00:29:41.708Z,3.42
2022-08-16T00:32:11.094Z,3.33
2022-08-16T00:34:43.869Z,3.50
2022-08-16T00:37:16.736Z,3.88
2022-08-16T00:39:45.089Z,3.17
2022-08-16T00:42:30.227Z,3.20
2022-08-16T00:45:08.251Z,3.40
2022-08-16T00:47:38.116Z,3.50
2022-08-16T00:50:11.353Z,3.25
2022-08-16T00:52:50.310Z,3.05
2022-08-16T00:55:20.049Z,3.33
2022-08-16T00:57:59.992Z,3.42
2022-08-16T01:00:29.449Z,3.88
2022-08-16T01:02:57.701Z,3.33
2022-08-16T01:05:25.663Z,2.97
2022-08-16T01:07:54.278Z,3.22
2022-08-16T01:10:31.967Z,3.50
2022-08-16T01:13:02.393Z,3.17
2022-08-16T01:15:33.707Z,3.83
2022-08-16T01:18:02.155Z,2.95
2022-08-16T01:20:33.958Z,3.47
2022-08-16T01:23:04.745Z,3.63
2022-08-16T01:25:37.923Z,3.30
2022-08-16T01:28:08.717Z,3.47
2022-08-16T01:30:40.084Z,3.30
2022-08-16T01:33:17.663Z,3.28
2022-08-16T01:35:52.572Z,3.60
2022-08-16T01:38:29.203Z,3.30
2022-08-16T01:41:02.022Z,3.53
2022-08-16T01:43:31.369Z,3.40
2022-08-16T01:46:37.700Z,3.30
2022-08-16T01:48:49.127Z,3.20
2022-08-16T01:51:17.745Z,3.58
2022-08-16T01:53:45.314Z,3.43
2022-08-16T01:56:24.705Z,3.60
2022-08-16T01:58:55.582Z,3.45
2022-08-16T02:01:23.215Z,3.80
2022-08-16T02:03:53.716Z,3.70
2022-08-16T02:06:34.387Z,3.28
2022-08-16T02:09:06.194Z,3.47
2022-08-16T02:11:48.633Z,3.53
2022-08-16T02:14:26.243Z,3.77
2022-08-16T02:16:54.855Z,3.90
2022-08-16T02:19:23.712Z,3.85
2022-08-16T02:22:08.976Z,3.70
2022-08-16T02:24:42.198Z,3.70
2022-08-16T02:27:10.343Z,3.57
2022-08-16T02:29:38.172Z,3.97
2022-08-16T02:32:49.957Z,3.67
2022-08-16T02:34:57.940Z,3.60
2022-08-16T02:37:51.532Z,3.53
2022-08-16T02:40:16.661Z,3.57
2022-08-16T02:42:49.604Z,3.70
2022-08-16T02:45:18.350Z,3.53
2022-08-16T02:48:01.547Z,3.20
2022-08-16T02:50:55.428Z,3.53
2022-08-16T02:53:23.375Z,3.90
2022-08-16T02:55:52.943Z,3.75
2022-08-16T02:58:24.867Z,3.60
2022-08-16T03:00:53.123Z,3.92
2022-08-16T03:03:24.393Z,3.70
2022-08-16T03:05:53.035Z,3.70
2022-08-16T03:08:50.230Z,4.00
2022-08-16T03:11:17.993Z,3.77
2022-08-16T03:13:56.491Z,3.70
2022-08-16T03:16:36.569Z,3.90
2022-08-16T03:19:06.342Z,3.80
2022-08-16T03:21:38.043Z,3.80
2022-08-16T03:24:27.543Z,3.77
2022-08-16T03:26:58.049Z,3.55
2022-08-16T03:29:29.989Z,3.70
2022-08-16T03:31:59.161Z,4.27
2022-08-16T03:34:27.773Z,3.93
2022-08-16T03:36:55.451Z,3.90
2022-08-16T03:39:23.180Z,3.83
2022-08-16T03:42:00.112Z,4.00
2022-08-16T03:44:44.454Z,4.23
2022-08-16T03:47:19.809Z,4.47
2022-08-16T03:49:52.382Z,3.80
2022-08-16T03:52:20.690Z,3.93
2022-08-16T03:54:58.139Z,3.70
2022-08-16T03:57:32.014Z,4.18
2022-08-16T04:00:36.271Z,4.17
2022-08-16T04:03:07.237Z,4.00
2022-08-16T04:05:39.720Z,4.00
2022-08-16T04:08:23.735Z,4.40
2022-08-16T04:10:57.851Z,3.72
2022-08-16T04:14:01.130Z,4.17
2022-08-16T04:16:26.803Z,3.93
2022-08-16T04:19:01.972Z,4.27
2022-08-16T04:21:30.459Z,4.03
2022-08-16T04:23:59.952Z,4.18
2022-08-16T04:26:30.905Z,4.07
2022-08-16T04:29:16.972Z,4.20
2022-08-16T04:31:56.848Z,4.23
2022-08-16T04:34:30.109Z,3.77
2022-08-16T04:37:01.465Z,3.90
2022-08-16T04:39:36.699Z,4.00
2022-08-16T04:42:14.084Z,4.20
2022-08-16T04:44:53.938Z,4.10
2022-08-16T04:47:24.495Z,3.90
2022-08-16T04:49:52.764Z,3.80
2022-08-16T04:52:32.670Z,3.83
2022-08-16T04:55:05.181Z,3.70
2022-08-16T04:57:32.472Z,3.90
2022-08-16T04:59:59.868Z,3.83
2022-08-16T05:02:55.611Z,4.20
2022-08-16T05:05:24.960Z,4.30
2022-08-16T05:08:00.201Z,3.60
2022-08-16T05:10:29.624Z,3.75
2022-08-16T05:12:57.734Z,3.97
2022-08-16T05:15:25.460Z,3.70
2022-08-16T05:17:58.464Z,3.63
2022-08-16T05:20:35.157Z,3.78
2022-08-16T05:23:06.982Z,3.72
2022-08-16T05:25:41.009Z,3.80
2022-08-16T05:28:15.715Z,3.60
2022-08-16T05:30:43.290Z,3.67
2022-08-16T05:33:16.543Z,3.70
2022-08-16T05:35:44.894Z,3.85
2022-08-16T05:38:32.997Z,3.75
2022-08-16T05:41:09.462Z,3.78
2022-08-16T05:43:43.153Z,3.28
2022-08-16T05:46:30.331Z,3.33
2022-08-16T05:49:06.033Z,2.90
2022-08-16T05:51:40.203Z,2.67
2022-08-16T05:54:11.615Z,2.58
2022-08-16T05:56:42.906Z,2.72
2022-08-16T05:59:11.004Z,2.42
2022-08-16T06:01:39.443Z,2.40
2022-08-16T06:04:13.773Z,2.45
2022-08-16T06:06:58.255Z,2.85
2022-08-16T06:09:43.780Z,2.97
2022-08-16T06:12:26.724Z,3.40
2022-08-16T06:15:01.811Z,3.38
2022-08-16T06:17:43.246Z,3.88
2022-08-16T06:20:14.597Z,3.55
2022-08-16T06:22:58.795Z,3.60
2022-08-16T06:25:36.666Z,3.80
2022-08-16T06:28:08.846Z,3.90
2022-08-16T06:30:43.187Z,3.80
2022-08-16T06:33:12.466Z,4.03
2022-08-16T06:35:41.648Z,3.90
2022-08-16T06:38:32.350Z,4.18
2022-08-16T06:40:56.996Z,3.70
2022-08-16T06:43:27.299Z,3.63
2022-08-16T06:45:55.435Z,4.35
2022-08-16T06:48:32.702Z,3.78
2022-08-16T06:51:01.929Z,4.80
2022-08-16T06:53:29.794Z,4.80
2022-08-16T06:56:00.024Z,4.60
2022-08-16T06:58:31.489Z,4.78
2022-08-16T07:01:00.125Z,4.85
2022-08-16T07:03:32.603Z,4.60
2022-08-16T07:06:00.554Z,4.57
2022-08-16T07:08:28.401Z,4.45
2022-08-16T07:10:56.376Z,4.68
2022-08-16T07:13:57.769Z,4.18
2022-08-16T07:16:15.287Z,3.90
2022-08-16T07:19:00.982Z,4.40
2022-08-16T07:21:46.007Z,4.43
2022-08-16T07:24:30.525Z,4.63
2022-08-16T07:27:01.444Z,4.97
2022-08-16T07:29:31.353Z,5.13
2022-08-16T07:31:59.593Z,4.57
2022-08-16T07:34:35.836Z,4.47
2022-08-16T07:37:15.793Z,4.65
2022-08-16T07:39:44.737Z,4.68
2022-08-16T07:42:26.148Z,4.72
2022-08-16T07:44:55.951Z,4.43
2022-08-16T07:47:31.938Z,5.18
2022-08-16T07:50:05.047Z,4.70
2022-08-16T07:52:33.218Z,5.00
2022-08-16T07:55:00.804Z,4.10
2022-08-16T07:57:28.684Z,4.25
2022-08-16T07:59:57.383Z,4.93
2022-08-16T08:02:27.329Z,5.18
2022-08-16T08:04:55.472Z,4.43
2022-08-16T08:07:27.607Z,4.45
2022-08-16T08:09:55.741Z,4.53
2022-08-16T08:12:32.067Z,4.50
2022-08-16T08:15:05.949Z,4.45
2022-08-16T08:17:42.637Z,4.68
2022-08-16T08:20:13.378Z,4.53
2022-08-16T08:22:51.555Z,4.80
2022-08-16T08:25:19.193Z,4.53
2022-08-16T08:27:46.724Z,4.53
2022-08-16T08:30:52.095Z,4.10
2022-08-16T08:33:02.574Z,4.43
2022-08-16T08:35:30.473Z,4.25
2022-08-16T08:37:57.728Z,4.28
2022-08-16T08:40:27.668Z,4.32
2022-08-16T08:43:00.948Z,4.30
2022-08-16T08:45:47.854Z,4.18
2022-08-16T08:48:34.111Z,4.25
2022-08-16T08:51:08.908Z,4.13
2022-08-16T08:53:38.006Z,4.10
2022-08-16T08:56:22.829Z,4.10
2022-08-16T08:58:53.876Z,4.13
2022-08-16T09:01:31.484Z,4.05
2022-08-16T09:04:04.571Z,4.13
2022-08-16T09:06:32.900Z,3.88
2022-08-16T09:09:01.038Z,4.00
2022-08-16T09:11:40.618Z,3.95
2022-08-16T09:14:09.077Z,4.07
2022-08-16T09:17:01.043Z,4.10
2022-08-16T09:19:34.282Z,3.83
2022-08-16T09:22:03.327Z,3.88
2022-08-16T09:24:46.779Z,4.30
2022-08-16T09:27:19.385Z,4.15
2022-08-16T09:29:46.754Z,4.15
2022-08-16T09:32:30.190Z,3.92
2022-08-16T09:34:58.744Z,3.50
2022-08-16T09:37:29.802Z,4.00
2022-08-16T09:39:59.669Z,3.47
2022-08-16T09:42:28.273Z,3.53
2022-08-16T09:45:11.272Z,4.00
2022-08-16T09:47:56.328Z,3.70
2022-08-16T09:50:37.114Z,3.70
2022-08-16T09:53:15.182Z,3.65
2022-08-16T09:55:49.060Z,3.85
2022-08-16T09:58:41.709Z,3.70
2022-08-16T10:01:04.512Z,3.78
2022-08-16T10:03:32.304Z,3.95
2022-08-16T10:06:00.197Z,4.10
2022-08-16T10:08:27.680Z,4.05
2022-08-16T10:11:14.123Z,4.45
2022-08-16T10:13:51.377Z,3.80
2022-08-16T10:16:22.054Z,4.10
2022-08-16T10:19:01.804Z,3.35
2022-08-16T10:21:34.723Z,3.90
2022-08-16T10:24:02.192Z,3.70
2022-08-16T10:27:17.379Z,3.47
2022-08-16T10:29:20.195Z,3.35
2022-08-16T10:31:53.549Z,3.22
2022-08-16T10:34:31.460Z,3.20
2022-08-16T10:36:59.676Z,3.60
2022-08-16T10:39:27.234Z,3.50
2022-08-16T10:42:08.583Z,3.55
2022-08-16T10:44:36.249Z,2.97
2022-08-16T10:47:03.805Z,3.53
2022-08-16T10:49:32.777Z,2.97
2022-08-16T10:52:03.254Z,3.10
2022-08-16T10:57:34.841Z,3.50
2022-08-16T11:00:06.685Z,3.42
2022-08-16T11:02:59.737Z,3.15
2022-08-16T11:14:35.823Z,2.92
2022-08-16T11:17:10.462Z,3.20
2022-08-16T11:22:47.572Z,3.03
2022-08-16T11:28:11.126Z,2.80
2022-08-16T11:30:39.567Z,3.20
2022-08-16T11:33:09.167Z,2.90
2022-08-16T11:36:22.471Z,3.42
2022-08-16T11:38:51.674Z,3.00
2022-08-16T11:41:13.728Z,2.95
2022-08-16T11:43:45.007Z,2.85
2022-08-16T11:46:45.121Z,3.22
2022-08-16T11:49:03.434Z,3.15
2022-08-16T11:51:30.786Z,3.30
2022-08-16T11:53:58.674Z,3.03
2022-08-16T11:56:39.614Z,2.95
2022-08-16T11:59:13.409Z,2.70
2022-08-16T12:01:44.457Z,3.00
2022-08-16T12:04:23.614Z,3.08
2022-08-16T12:06:54.774Z,2.80
2022-08-16T12:09:24.060Z,3.33
2022-08-16T12:11:53.125Z,2.75
2022-08-16T12:14:23.074Z,3.13
2022-08-16T12:16:55.425Z,3.20
2022-08-16T12:19:33.973Z,2.95
2022-08-16T12:22:05.793Z,3.15
2022-08-16T12:24:50.981Z,3.47
2022-08-16T12:27:20.364Z,2.90
2022-08-16T12:29:51.655Z,3.42
2022-08-16T12:32:37.406Z,2.75
2022-08-16T12:35:07.669Z,2.90
2022-08-16T12:37:35.161Z,2.70
2022-08-16T12:40:02.554Z,2.95
2022-08-16T12:42:34.636Z,3.38
2022-08-16T12:45:09.170Z,3.00
2022-08-16T12:48:15.967Z,3.00
2022-08-16T12:50:49.410Z,2.95
2022-08-16T12:53:18.210Z,2.58
2022-08-16T12:55:46.486Z,2.75
2022-08-16T12:58:48.455Z,2.60
2022-08-16T13:01:03.677Z,2.53
2022-08-16T13:03:40.159Z,2.50
2022-08-16T13:06:08.317Z,2.90
2022-08-16T13:08:46.595Z,2.50
2022-08-16T13:11:17.701Z,2.30
2022-08-16T13:13:45.415Z,2.47
2022-08-16T13:16:15.368Z,2.70
2022-08-16T13:18:52.656Z,2.55
2022-08-16T13:21:23.336Z,2.50
2022-08-16T13:23:53.454Z,2.60
2022-08-16T13:26:23.036Z,2.50
2022-08-16T13:28:51.117Z,2.60
2022-08-16T13:31:18.554Z,2.40
2022-08-16T13:33:46.261Z,2.72
2022-08-16T13:36:32.360Z,2.83
2022-08-16T13:39:01.488Z,2.47
2022-08-16T13:41:30.137Z,2.40
2022-08-16T13:43:59.433Z,2.70
2022-08-16T13:46:27.553Z,2.50
2022-08-16T13:48:56.007Z,2.35
2022-08-16T13:51:25.398Z,2.70
2022-08-16T13:54:03.190Z,2.65
2022-08-16T13:56:37.432Z,2.45
2022-08-16T13:59:19.431Z,2.80
2022-08-16T14:01:54.684Z,2.65
2022-08-16T14:04:26.824Z,2.40
2022-08-16T14:06:55.201Z,2.50
2022-08-16T14:09:24.160Z,2.65
2022-08-16T14:11:53.454Z,2.55
2022-08-16T14:14:28.832Z,2.45
2022-08-16T14:16:56.547Z,2.83
2022-08-16T14:19:23.831Z,2.55
2022-08-16T14:21:56.658Z,2.33
2022-08-16T14:24:40.591Z,2.45
2022-08-16T14:27:13.548Z,3.05
2022-08-16T14:29:42.729Z,2.47
2022-08-16T14:32:10.163Z,2.65
2022-08-16T14:34:55.764Z,2.40
2022-08-16T14:37:23.440Z,2.45
2022-08-16T14:39:51.410Z,2.78
2022-08-16T14:42:21.167Z,2.47
2022-08-16T14:44:49.453Z,2.60
2022-08-16T14:47:17.473Z,2.70
2022-08-16T14:49:45.733Z,2.83
2022-08-16T14:52:20.412Z,2.67
2022-08-16T14:55:03.556Z,2.60
2022-08-16T14:57:30.976Z,2.55
2022-08-16T15:00:05.581Z,2.75
2022-08-16T15:02:34.389Z,2.70
2022-08-16T15:05:04.438Z,2.22
2022-08-16T15:07:35.132Z,2.80
2022-08-16T15:10:03.672Z,2.33
2022-08-16T15:12:34.234Z,2.90
2022-08-16T15:15:12.886Z,2.58
2022-08-16T15:17:56.147Z,2.40
2022-08-16T15:20:26.204Z,2.88
2022-08-16T15:22:54.738Z,2.30
2022-08-16T15:25:29.047Z,2.40
2022-08-16T15:27:57.463Z,2.67
2022-08-16T15:30:48.233Z,2.60
2022-08-16T15:33:21.663Z,2.50
2022-08-16T15:35:55.522Z,2.60
2022-08-16T15:38:57.584Z,2.28
2022-08-16T15:41:29.266Z,2.50
2022-08-16T15:44:05.460Z,2.47
2022-08-16T15:46:54.989Z,2.70
2022-08-16T15:49:25.320Z,2.88
2022-08-16T15:52:29.257Z,2.90
2022-08-16T15:54:58.314Z,2.65
2022-08-16T15:57:26.988Z,2.67
2022-08-16T15:59:55.997Z,2.63
2022-08-16T16:02:30.902Z,2.50
2022-08-16T16:05:00.477Z,2.75
2022-08-16T16:07:30.320Z,2.67
2022-08-16T16:09:58.190Z,2.67
2022-08-16T16:12:51.485Z,2.72
2022-08-16T16:15:16.441Z,2.80
2022-08-16T16:17:44.053Z,2.50
2022-08-16T16:20:18.589Z,2.75
2022-08-16T16:22:47.753Z,2.70
2022-08-16T16:25:16.029Z,2.75
2022-08-16T16:27:55.238Z,3.08
2022-08-16T16:30:33.272Z,2.60
2022-08-16T16:33:11.629Z,2.40
2022-08-16T16:35:46.899Z,2.90
2022-08-16T16:38:16.476Z,2.53
2022-08-16T16:40:54.161Z,2.50
2022-08-16T16:43:25.687Z,2.78
2022-08-16T16:45:58.565Z,2.78
2022-08-16T16:48:29.598Z,2.72
2022-08-16T16:51:06.022Z,3.00
2022-08-16T16:53:37.829Z,3.10
2022-08-16T16:56:10.298Z,2.85
2022-08-16T16:58:56.295Z,2.95
2022-08-16T17:01:59.125Z,2.67
2022-08-16T17:04:31.598Z,2.60
2022-08-16T17:07:00.348Z,2.58
2022-08-16T17:09:27.673Z,2.75
2022-08-16T17:11:56.413Z,2.65
2022-08-16T17:14:32.198Z,2.72
2022-08-16T17:17:01.330Z,2.78
2022-08-16T17:19:31.737Z,3.30
2022-08-16T17:21:59.768Z,3.30
2022-08-16T17:24:39.333Z,2.72
2022-08-16T17:27:07.823Z,3.55
2022-08-16T17:29:35.427Z,2.80
2022-08-16T17:32:44.555Z,2.70
2022-08-16T17:35:02.360Z,2.67
2022-08-16T17:37:34.098Z,2.60
2022-08-16T17:40:40.529Z,2.72
2022-08-16T17:43:04.177Z,3.70
2022-08-16T17:45:31.535Z,3.50
2022-08-16T17:47:58.786Z,3.05
2022-08-16T17:50:26.055Z,3.05
2022-08-16T17:52:55.809Z,3.03
2022-08-16T17:55:27.857Z,3.15
2022-08-16T17:57:55.665Z,3.13
2022-08-16T18:00:23.825Z,2.70
2022-08-16T18:02:51.877Z,3.10
2022-08-16T18:05:20.541Z,2.70
2022-08-16T18:07:48.246Z,2.90
2022-08-16T18:10:21.250Z,3.22
2022-08-16T18:13:00.897Z,3.40
2022-08-16T18:15:29.081Z,2.90
2022-08-16T18:17:56.372Z,3.30
2022-08-16T18:20:43.274Z,2.80
2022-08-16T18:23:15.235Z,2.88
2022-08-16T18:25:46.596Z,2.90
2022-08-16T18:28:14.893Z,3.33
2022-08-16T18:30:42.590Z,3.10
2022-08-16T18:33:09.912Z,2.92
2022-08-16T18:35:37.538Z,2.92
2022-08-16T18:38:05.074Z,4.32
2022-08-16T18:40:32.696Z,4.60
2022-08-16T18:43:11.625Z,3.88
2022-08-16T18:45:39.911Z,3.33
2022-08-16T18:48:07.926Z,3.50
2022-08-16T18:50:58.906Z,3.50
2022-08-16T18:53:23.432Z,3.30
2022-08-16T18:55:54.328Z,3.50
2022-08-16T18:58:21.643Z,4.03
2022-08-16T19:00:56.460Z,3.38
2022-08-16T19:03:26.250Z,3.58
2022-08-16T19:06:11.405Z,3.70
2022-08-16T19:08:41.968Z,3.67
2022-08-16T19:11:13.916Z,3.47
2022-08-16T19:13:44.418Z,3.60
2022-08-16T19:16:12.650Z,3.70
2022-08-16T19:18:40.119Z,3.60
2022-08-16T19:21:08.947Z,3.65
2022-08-16T19:23:37.823Z,3.70
2022-08-16T19:26:11.074Z,3.85
2022-08-16T19:28:58.547Z,3.85
2022-08-16T19:31:29.288Z,4.03
2022-08-16T19:33:57.149Z,4.30
2022-08-16T19:36:35.009Z,4.20
2022-08-16T19:39:05.225Z,4.60
2022-08-16T19:41:34.165Z,5.32
2022-08-16T19:44:01.505Z,5.22
2022-08-16T19:46:28.914Z,6.05
2022-08-16T19:48:56.258Z,7.63
2022-08-16T19:51:23.577Z,5.78
2022-08-16T19:53:50.864Z,4.28
2022-08-16T19:56:18.855Z,3.83
2022-08-16T19:59:08.915Z,4.03
2022-08-16T20:01:38.495Z,3.97
2022-08-16T20:04:12.267Z,4.07
2022-08-16T20:06:40.517Z,3.88
2022-08-16T20:09:08.071Z,4.43
2022-08-16T20:11:37.747Z,4.20
2022-08-16T20:14:05.703Z,4.10
2022-08-16T20:16:33.035Z,4.85
2022-08-16T20:19:00.309Z,4.63
2022-08-16T20:21:28.493Z,5.00
2022-08-16T20:24:05.056Z,4.57
2022-08-16T20:26:43.281Z,4.40
2022-08-16T20:29:10.593Z,4.55
2022-08-16T20:31:38.519Z,4.97
2022-08-16T20:34:06.143Z,4.90
2022-08-16T20:36:33.586Z,5.22
2022-08-16T20:39:03.494Z,4.65
2022-08-16T20:41:30.958Z,5.00
2022-08-16T20:43:58.413Z,4.90
2022-08-16T20:46:26.649Z,6.25
2022-08-16T20:48:54.031Z,6.65
2022-08-16T20:51:21.368Z,4.43
2022-08-16T20:53:49.439Z,4.57
2022-08-16T20:56:16.768Z,4.57
2022-08-16T20:58:44.188Z,4.53
2022-08-16T21:01:11.649Z,5.20
2022-08-16T21:03:39.283Z,4.70
2022-08-16T21:06:06.760Z,5.80
2022-08-16T21:08:51.591Z,5.18
2022-08-16T21:11:21.729Z,5.28
2022-08-16T21:13:49.358Z,4.95
2022-08-16T21:16:17.841Z,5.20
2022-08-16T21:18:45.377Z,5.25
2022-08-16T21:21:15.224Z,5.07
2022-08-16T21:23:45.020Z,5.78
2022-08-16T21:26:12.344Z,4.50
2022-08-16T21:28:43.440Z,4.10
2022-08-16T21:31:12.666Z,4.15
2022-08-16T21:33:40.187Z,4.38
2022-08-16T21:36:07.671Z,5.35
2022-08-16T21:38:35.191Z,5.07
2022-08-16T21:41:03.581Z,5.38
2022-08-16T21:43:33.326Z,5.82
2022-08-16T21:46:01.927Z,5.47
2022-08-16T21:48:35.701Z,5.88
2022-08-16T21:51:11.871Z,6.10
2022-08-16T21:53:39.779Z,5.75
2022-08-16T21:56:08.309Z,5.65
2022-08-16T21:58:44.465Z,5.95
2022-08-16T22:01:11.868Z,5.65
2022-08-16T22:03:39.124Z,5.82
2022-08-16T22:06:12.598Z,5.22
2022-08-16T22:08:49.564Z,5.97
2022-08-16T22:11:21.986Z,6.10
2022-08-16T22:13:57.328Z,5.70
2022-08-16T22:16:27.766Z,6.00
2022-08-16T22:18:55.099Z,5.65
2022-08-16T22:21:22.425Z,5.70
2022-08-16T22:23:56.547Z,5.68
2022-08-16T22:26:30.193Z,5.60
2022-08-16T22:28:58.069Z,6.07
2022-08-16T22:31:25.485Z,6.13
2022-08-16T22:33:52.835Z,6.18
2022-08-16T22:36:20.144Z,5.97
2022-08-16T22:38:56.334Z,5.72
2022-08-16T22:41:25.690Z,6.63
2022-08-16T22:43:53.152Z,6.57
2022-08-16T22:46:20.851Z,6.07
2022-08-16T22:48:51.519Z,6.25
2022-08-16T22:51:20.014Z,6.25
2022-08-16T22:53:47.553Z,6.60
2022-08-16T22:56:18.092Z,6.45
2022-08-16T22:58:46.193Z,6.45
2022-08-16T23:01:14.037Z,6.40
2022-08-16T23:03:42.042Z,6.70
2022-08-16T23:06:10.975Z,6.07
2022-08-16T23:08:40.879Z,6.00
2022-08-16T23:11:13.369Z,6.05
2022-08-16T23:13:52.740Z,5.40
2022-08-16T23:16:39.898Z,6.03
2022-08-16T23:19:08.701Z,5.78
2022-08-16T23:21:37.401Z,6.18
2022-08-16T23:24:05.007Z,5.47
2022-08-16T23:26:46.488Z,5.75
2022-08-16T23:29:25.526Z,6.00
2022-08-16T23:31:55.993Z,6.20
2022-08-16T23:34:23.480Z,5.80
2022-08-16T23:36:50.800Z,6.20
2022-08-16T23:39:18.168Z,6.25
2022-08-16T23:41:45.419Z,6.68
2022-08-16T23:44:55.887Z,6.50
2022-08-16T23:47:00.094Z,6.72
2022-08-16T23:49:59.493Z,5.88
2022-08-16T23:52:15.260Z,6.15
2022-08-16T23:54:42.516Z,6.65
2022-08-16T23:57:09.864Z,6.35
2022-08-16T23:59:52.535Z,6.70
